createdAt,value
2022-09-10T00:00:18.308Z,22.20
2022-09-10T00:02:45.321Z,22.20
2022-09-10T00:05:13.151Z,22.10
2022-09-10T00:07:40.128Z,22.10
2022-09-10T00:10:08.413Z,22.00
2022-09-10T00:12:36.030Z,22.00
2022-09-10T00:15:05.878Z,21.90
2022-09-10T00:17:33.296Z,21.90
2022-09-10T00:20:00.513Z,21.90
2022-09-10T00:22:27.519Z,21.80
2022-09-10T00:24:57.676Z,21.80
2022-09-10T00:27:24.778Z,21.80
2022-09-10T00:29:53.068Z,21.70
2022-09-10T00:32:21.741Z,21.80
2022-09-10T00:34:48.814Z,21.70
2022-09-10T00:37:16.448Z,21.70
2022-09-10T00:39:43.554Z,21.70
2022-09-10T00:42:13.639Z,21.70
2022-09-10T00:44:40.649Z,21.70
2022-09-10T00:47:21.355Z,21.70
2022-09-10T00:49:53.106Z,21.70
2022-09-10T00:52:20.214Z,21.70
2022-09-10T00:54:48.251Z,21.60
2022-09-10T00:57:20.772Z,21.60
2022-09-10T00:59:53.349Z,21.60
2022-09-10T01:02:21.675Z,21.60
2022-09-10T01:04:50.108Z,21.60
2022-09-10T01:07:18.931Z,21.60
2022-09-10T01:09:46.203Z,21.50
2022-09-10T01:12:38.307Z,21.50
2022-09-10T01:15:08.147Z,21.50
2022-09-10T01:17:53.730Z,21.50
2022-09-10T01:20:40.470Z,21.50
2022-09-10T01:23:29.228Z,21.40
2022-09-10T01:26:14.437Z,21.40
2022-09-10T01:28:50.842Z,21.40
2022-09-10T01:31:49.975Z,21.40
2022-09-10T01:34:42.458Z,21.40
2022-09-10T01:37:17.573Z,21.40
2022-09-10T01:39:47.334Z,21.30
2022-09-10T01:42:16.182Z,21.30
2022-09-10T01:44:51.589Z,21.30
2022-09-10T01:47:46.256Z,21.30
2022-09-10T01:50:38.788Z,21.30
2022-09-10T01:53:11.513Z,21.30
2022-09-10T01:56:20.584Z,21.20
2022-09-10T01:58:49.276Z,21.20
2022-09-10T02:01:52.556Z,21.20
2022-09-10T02:04:21.730Z,21.10
2022-09-10T02:06:51.684Z,21.10
2022-09-10T02:09:19.961Z,21.10
2022-09-10T02:11:53.695Z,21.10
2022-09-10T02:14:40.949Z,21.20
2022-09-10T02:17:19.239Z,21.10
2022-09-10T02:19:51.392Z,21.20
2022-09-10T02:22:20.290Z,21.00
2022-09-10T02:24:47.254Z,21.00
2022-09-10T02:27:15.007Z,20.90
2022-09-10T02:29:42.342Z,20.80
2022-09-10T02:32:10.227Z,20.70
2022-09-10T02:34:37.411Z,20.70
2022-09-10T02:37:04.504Z,20.70
2022-09-10T02:39:31.726Z,20.70
2022-09-10T02:41:59.754Z,20.70
2022-09-10T02:44:28.334Z,20.70
2022-09-10T02:46:55.867Z,20.70
2022-09-10T02:49:22.784Z,20.60
2022-09-10T02:51:53.095Z,20.60
2022-09-10T02:54:20.034Z,20.60
2022-09-10T02:56:50.196Z,20.50
2022-09-10T02:59:20.389Z,20.50
2022-09-10T03:01:48.373Z,20.40
2022-09-10T03:04:16.295Z,20.40
2022-09-10T03:06:48.406Z,20.40
2022-09-10T03:09:16.540Z,20.30
2022-09-10T03:11:43.533Z,20.30
2022-09-10T03:14:10.956Z,20.20
2022-09-10T03:16:38.163Z,20.10
2022-09-10T03:19:06.816Z,20.10
2022-09-10T03:21:34.402Z,20.10
2022-09-10T03:24:02.135Z,20.00
2022-09-10T03:26:30.876Z,20.00
2022-09-10T03:28:58.196Z,19.90
2022-09-10T03:31:27.682Z,19.90
2022-09-10T03:33:54.919Z,19.90
2022-09-10T03:36:22.920Z,19.90
2022-09-10T03:38:50.673Z,19.90
2022-09-10T03:41:17.738Z,19.90
2022-09-10T03:43:45.580Z,19.90
2022-09-10T03:46:12.799Z,19.90
2022-09-10T03:48:45.564Z,19.90
2022-09-10T03:51:13.430Z,19.90
2022-09-10T03:53:41.027Z,19.90
2022-09-10T03:56:12.856Z,19.90
2022-09-10T03:58:40.949Z,19.90
2022-09-10T04:01:09.542Z,19.90
2022-09-10T04:03:39.249Z,19.90
2022-09-10T04:06:11.003Z,19.90
2022-09-10T04:08:38.677Z,19.90
2022-09-10T04:11:08.344Z,19.90
2022-09-10T04:13:35.511Z,19.90
2022-09-10T04:16:03.017Z,19.80
2022-09-10T04:18:34.217Z,19.80
2022-09-10T04:21:02.503Z,19.90
2022-09-10T04:23:29.868Z,19.90
2022-09-10T04:25:57.178Z,19.90
2022-09-10T04:28:24.823Z,19.90
2022-09-10T04:30:52.721Z,19.90
2022-09-10T04:33:22.461Z,19.90
2022-09-10T04:35:49.542Z,19.90
2022-09-10T04:38:16.702Z,19.90
2022-09-10T04:40:47.679Z,19.90
2022-09-10T04:43:15.884Z,19.90
2022-09-10T04:45:43.968Z,19.90
2022-09-10T04:48:12.061Z,19.90
2022-09-10T04:50:54.065Z,19.90
2022-09-10T04:53:28.166Z,19.90
2022-09-10T04:55:57.622Z,19.90
2022-09-10T04:58:24.721Z,19.90
2022-09-10T05:00:51.888Z,19.90
2022-09-10T05:03:20.179Z,19.90
2022-09-10T05:05:48.289Z,19.90
2022-09-10T05:08:15.483Z,19.90
2022-09-10T05:10:49.749Z,19.90
2022-09-10T05:13:17.268Z,19.90
2022-09-10T05:15:46.147Z,19.90
2022-09-10T05:18:16.653Z,19.90
2022-09-10T05:20:47.506Z,20.00
2022-09-10T05:23:14.465Z,20.00
2022-09-10T05:25:44.511Z,20.00
2022-09-10T05:28:12.219Z,20.00
2022-09-10T05:30:39.236Z,20.00
2022-09-10T05:33:06.399Z,20.00
2022-09-10T05:35:34.758Z,20.00
2022-09-10T05:38:02.273Z,20.00
2022-09-10T05:40:35.491Z,20.10
2022-09-10T05:43:03.338Z,20.10
2022-09-10T05:45:30.998Z,20.20
2022-09-10T05:47:58.374Z,20.20
2022-09-10T05:50:25.496Z,20.30
2022-09-10T05:52:53.631Z,20.30
2022-09-10T05:55:20.870Z,20.40
2022-09-10T05:57:48.982Z,20.50
2022-09-10T06:00:18.938Z,20.70
2022-09-10T06:02:54.405Z,20.90
2022-09-10T06:05:28.431Z,21.40
2022-09-10T06:07:56.696Z,22.10
2022-09-10T06:10:23.907Z,22.60
2022-09-10T06:12:52.132Z,22.90
2022-09-10T06:15:21.237Z,23.20
2022-09-10T06:17:50.091Z,23.20
2022-09-10T06:20:18.063Z,23.10
2022-09-10T06:22:46.691Z,22.90
2022-09-10T06:25:13.718Z,22.80
2022-09-10T06:27:41.530Z,22.70
2022-09-10T06:30:09.025Z,22.60
2022-09-10T06:32:39.925Z,22.60
2022-09-10T06:35:09.295Z,22.60
2022-09-10T06:37:37.231Z,22.50
2022-09-10T06:40:07.490Z,22.50
2022-09-10T06:42:35.173Z,22.60
2022-09-10T06:45:14.194Z,22.60
2022-09-10T06:50:58.230Z,22.80
2022-09-10T06:53:33.368Z,22.90
2022-09-10T06:56:02.561Z,22.90
2022-09-10T06:58:36.065Z,22.90
2022-09-10T07:01:16.043Z,22.90
2022-09-10T07:03:47.742Z,23.00
2022-09-10T07:06:16.946Z,23.00
2022-09-10T07:08:47.124Z,23.00
2022-09-10T07:11:15.876Z,22.90
2022-09-10T07:13:44.228Z,22.90
2022-09-10T07:16:11.758Z,22.90
2022-09-10T07:18:38.991Z,22.90
2022-09-10T07:21:11.628Z,23.00
2022-09-10T07:23:44.288Z,23.10
2022-09-10T07:26:15.191Z,23.20
2022-09-10T07:28:48.571Z,23.20
2022-09-10T07:31:20.470Z,23.30
2022-09-10T07:33:49.745Z,23.30
2022-09-10T07:36:17.984Z,23.40
2022-09-10T07:38:48.024Z,23.50
2022-09-10T07:41:15.504Z,23.60
2022-09-10T07:43:44.349Z,23.70
2022-09-10T07:46:20.583Z,23.80
2022-09-10T07:48:57.711Z,23.90
2022-09-10T07:51:26.949Z,23.90
2022-09-10T07:53:58.416Z,24.00
2022-09-10T07:56:34.018Z,24.20
2022-09-10T07:59:03.787Z,24.30
2022-09-10T08:01:37.872Z,24.30
2022-09-10T08:04:07.318Z,24.40
2022-09-10T08:06:37.948Z,24.50
2022-09-10T08:09:07.399Z,24.60
2022-09-10T08:11:40.041Z,24.70
2022-09-10T08:14:10.218Z,24.80
2022-09-10T08:16:40.172Z,24.90
2022-09-10T08:19:13.842Z,25.00
2022-09-10T08:21:41.314Z,25.10
2022-09-10T08:24:10.523Z,25.10
2022-09-10T08:26:39.555Z,25.20
2022-09-10T08:29:07.291Z,25.30
2022-09-10T08:31:34.748Z,25.40
2022-09-10T08:34:09.304Z,25.50
2022-09-10T08:36:39.466Z,25.70
2022-09-10T08:39:08.539Z,25.80
2022-09-10T08:41:39.369Z,25.90
2022-09-10T08:44:40.389Z,26.00
2022-09-10T08:47:38.934Z,26.10
2022-09-10T08:50:38.164Z,26.20
2022-09-10T08:53:37.584Z,26.30
2022-09-10T08:56:15.703Z,26.40
2022-09-10T08:58:50.609Z,26.40
2022-09-10T09:02:01.144Z,26.50
2022-09-10T09:04:36.832Z,26.60
2022-09-10T09:07:12.964Z,26.70
2022-09-10T09:09:42.884Z,26.80
2022-09-10T09:12:21.096Z,26.80
2022-09-10T09:15:13.858Z,26.90
2022-09-10T09:18:04.079Z,27.10
2022-09-10T09:20:53.718Z,27.10
2022-09-10T09:23:33.410Z,27.30
2022-09-10T09:26:13.819Z,27.40
2022-09-10T09:28:55.116Z,27.50
2022-09-10T09:31:38.698Z,27.60
2022-09-10T09:34:20.711Z,27.70
2022-09-10T09:36:56.811Z,27.80
2022-09-10T09:39:36.957Z,27.70
2022-09-10T09:42:10.041Z,27.80
2022-09-10T09:44:55.053Z,27.90
2022-09-10T09:47:24.069Z,28.00
2022-09-10T09:49:52.050Z,28.00
2022-09-10T09:52:22.776Z,28.00
2022-09-10T09:57:42.830Z,28.10
2022-09-10T10:00:36.233Z,28.20
2022-09-10T10:03:13.071Z,28.20
2022-09-10T10:05:40.115Z,28.40
2022-09-10T10:08:19.414Z,28.40
2022-09-10T10:10:52.169Z,28.40
2022-09-10T10:13:22.716Z,28.50
2022-09-10T10:15:50.694Z,28.50
2022-09-10T10:18:24.156Z,28.60
2022-09-10T10:21:12.461Z,28.70
2022-09-10T10:23:39.890Z,28.80
2022-09-10T10:26:21.953Z,28.90
2022-09-10T10:28:56.359Z,29.00
2022-09-10T10:31:23.740Z,29.10
2022-09-10T10:34:16.937Z,29.10
2022-09-10T10:37:14.430Z,29.20
2022-09-10T10:40:02.580Z,29.30
2022-09-10T10:42:32.411Z,29.30
2022-09-10T10:45:14.431Z,29.40
2022-09-10T10:47:46.449Z,29.40
2022-09-10T10:50:31.038Z,29.40
2022-09-10T10:53:00.981Z,29.40
2022-09-10T10:55:50.345Z,29.40
2022-09-10T10:58:23.712Z,29.40
2022-09-10T11:01:02.981Z,29.40
2022-09-10T11:03:42.877Z,29.50
2022-09-10T11:06:14.970Z,29.50
2022-09-10T11:08:42.398Z,29.50
2022-09-10T11:11:13.338Z,29.70
2022-09-10T11:13:46.767Z,29.80
2022-09-10T11:16:16.793Z,29.80
2022-09-10T11:19:07.824Z,29.80
2022-09-10T11:21:40.839Z,29.90
2022-09-10T11:24:34.237Z,29.90
2022-09-10T11:27:18.372Z,30.00
2022-09-10T11:30:19.327Z,30.20
2022-09-10T11:32:59.945Z,30.20
2022-09-10T11:35:33.908Z,30.30
2022-09-10T11:38:12.917Z,30.30
2022-09-10T11:40:58.871Z,30.30
2022-09-10T11:43:47.786Z,30.30
2022-09-10T11:46:25.383Z,30.20
2022-09-10T11:49:04.148Z,30.10
2022-09-10T11:51:37.728Z,30.00
2022-09-10T11:54:10.076Z,30.00
2022-09-10T11:57:01.516Z,30.10
2022-09-10T11:59:49.408Z,30.20
2022-09-10T12:02:53.761Z,30.30
2022-09-10T12:05:26.364Z,30.40
2022-09-10T12:08:35.048Z,30.40
2022-09-10T12:11:17.037Z,30.40
2022-09-10T12:13:45.789Z,30.40
2022-09-10T12:16:45.117Z,30.40
2022-09-10T12:19:37.593Z,30.30
2022-09-10T12:22:09.358Z,30.30
2022-09-10T12:24:39.481Z,30.20
2022-09-10T12:27:07.814Z,30.20
2022-09-10T12:29:40.836Z,30.20
2022-09-10T12:32:19.976Z,30.20
2022-09-10T12:34:49.876Z,30.20
2022-09-10T12:37:28.198Z,30.30
2022-09-10T12:40:22.886Z,30.30
2022-09-10T12:42:49.817Z,30.30
2022-09-10T12:46:09.064Z,30.30
2022-09-10T12:48:40.104Z,30.30
2022-09-10T12:51:46.259Z,30.20
2022-09-10T12:54:50.859Z,30.20
2022-09-10T12:57:35.196Z,30.30
2022-09-10T13:00:23.885Z,30.30
2022-09-10T13:03:15.278Z,30.30
2022-09-10T13:05:45.078Z,30.30
2022-09-10T13:08:13.834Z,30.20
2022-09-10T13:10:47.405Z,30.20
2022-09-10T13:13:36.533Z,30.20
2022-09-10T13:16:05.601Z,30.10
2022-09-10T13:18:35.084Z,30.10
2022-09-10T13:21:31.441Z,30.10
2022-09-10T13:23:58.451Z,30.20
2022-09-10T13:26:31.507Z,30.10
2022-09-10T13:29:00.734Z,30.10
2022-09-10T13:31:42.284Z,30.10
2022-09-10T13:34:15.311Z,30.10
2022-09-10T13:37:12.277Z,30.00
2022-09-10T13:40:00.080Z,30.10
2022-09-10T13:42:56.493Z,30.10
2022-09-10T13:45:41.619Z,30.10
2022-09-10T13:48:17.455Z,30.10
2022-09-10T13:50:53.224Z,30.20
2022-09-10T13:53:21.385Z,30.20
2022-09-10T13:56:01.692Z,30.20
2022-09-10T13:58:36.381Z,30.20
2022-09-10T14:01:05.132Z,30.10
2022-09-10T14:03:34.787Z,30.00
2022-09-10T14:06:05.187Z,30.00
2022-09-10T14:08:49.523Z,30.00
2022-09-10T14:11:21.476Z,30.00
2022-09-10T14:14:11.299Z,30.00
2022-09-10T14:17:10.896Z,29.90
2022-09-10T14:19:51.196Z,29.90
2022-09-10T14:22:26.391Z,29.90
2022-09-10T14:24:58.401Z,29.80
2022-09-10T14:27:37.562Z,29.70
2022-09-10T14:30:21.505Z,29.70
2022-09-10T14:32:48.509Z,29.60
2022-09-10T14:35:39.320Z,29.60
2022-09-10T14:38:29.219Z,29.60
2022-09-10T14:41:16.617Z,29.70
2022-09-10T14:43:45.669Z,29.70
2022-09-10T14:46:46.319Z,29.70
2022-09-10T14:49:18.748Z,29.70
2022-09-10T14:51:47.261Z,29.80
2022-09-10T14:54:14.973Z,29.80
2022-09-10T14:56:47.393Z,29.80
2022-09-10T14:59:32.187Z,29.70
2022-09-10T15:02:04.477Z,29.70
2022-09-10T15:04:31.726Z,29.70
2022-09-10T15:07:00.490Z,29.70
2022-09-10T15:09:29.235Z,29.70
2022-09-10T15:11:56.160Z,29.60
2022-09-10T15:14:23.656Z,29.50
2022-09-10T15:16:52.262Z,29.40
2022-09-10T15:19:20.395Z,29.40
2022-09-10T15:21:48.157Z,29.30
2022-09-10T15:24:20.541Z,29.40
2022-09-10T15:26:48.222Z,29.30
2022-09-10T15:29:16.125Z,29.30
2022-09-10T15:31:45.704Z,29.40
2022-09-10T15:34:13.061Z,29.30
2022-09-10T15:36:41.231Z,29.20
2022-09-10T15:39:13.494Z,29.20
2022-09-10T15:41:44.772Z,29.20
2022-09-10T15:44:12.211Z,29.10
2022-09-10T15:46:45.599Z,29.10
2022-09-10T15:49:12.621Z,29.00
2022-09-10T15:51:39.648Z,29.00
2022-09-10T15:54:06.890Z,29.00
2022-09-10T15:56:33.829Z,29.00
2022-09-10T15:59:01.883Z,28.90
2022-09-10T16:01:29.506Z,28.90
2022-09-10T16:04:04.024Z,28.80
2022-09-10T16:06:37.715Z,28.80
2022-09-10T16:09:07.762Z,28.70
2022-09-10T16:11:36.721Z,28.70
2022-09-10T16:14:07.142Z,28.60
2022-09-10T16:16:35.957Z,28.60
2022-09-10T16:19:04.432Z,28.50
2022-09-10T16:21:33.780Z,28.50
2022-09-10T16:24:01.581Z,28.50
2022-09-10T16:26:31.757Z,28.50
2022-09-10T16:29:00.927Z,28.40
2022-09-10T16:31:36.616Z,28.40
2022-09-10T16:34:06.979Z,28.30
2022-09-10T16:36:36.938Z,28.30
2022-09-10T16:39:07.190Z,28.30
2022-09-10T16:41:34.137Z,28.20
2022-09-10T16:44:01.174Z,28.10
2022-09-10T16:46:28.682Z,28.10
2022-09-10T16:48:56.756Z,28.10
2022-09-10T16:51:25.465Z,28.00
2022-09-10T16:54:02.281Z,28.00
2022-09-10T16:56:34.692Z,28.00
2022-09-10T16:59:02.260Z,28.00
2022-09-10T17:01:29.585Z,28.00
2022-09-10T17:03:57.163Z,28.00
2022-09-10T17:06:26.638Z,28.00
2022-09-10T17:08:55.324Z,27.90
2022-09-10T17:11:22.899Z,27.90
2022-09-10T17:13:50.949Z,27.90
2022-09-10T17:16:20.988Z,27.90
2022-09-10T17:18:59.823Z,27.80
2022-09-10T17:21:29.113Z,27.70
2022-09-10T17:23:56.460Z,27.70
2022-09-10T17:26:27.135Z,27.60
2022-09-10T17:28:56.160Z,27.50
2022-09-10T17:31:23.900Z,27.40
2022-09-10T17:33:51.797Z,27.40
2022-09-10T17:36:19.913Z,27.20
2022-09-10T17:38:47.366Z,27.20
2022-09-10T17:41:15.144Z,27.10
2022-09-10T17:43:43.585Z,27.00
2022-09-10T17:46:22.646Z,26.80
2022-09-10T17:48:50.755Z,26.70
2022-09-10T17:51:24.546Z,26.60
2022-09-10T17:53:53.791Z,26.60
2022-09-10T17:56:22.570Z,26.50
2022-09-10T17:58:50.796Z,26.40
2022-09-10T18:01:24.220Z,26.40
2022-09-10T18:03:52.003Z,26.30
2022-09-10T18:06:21.340Z,26.30
2022-09-10T18:08:50.418Z,26.30
2022-09-10T18:11:23.679Z,26.30
2022-09-10T18:13:52.502Z,26.20
2022-09-10T18:16:22.059Z,26.20
2022-09-10T18:18:54.521Z,26.20
2022-09-10T18:21:24.134Z,26.20
2022-09-10T18:23:56.248Z,26.20
2022-09-10T18:26:26.232Z,26.20
2022-09-10T18:28:58.529Z,26.10
2022-09-10T18:31:28.004Z,26.10
2022-09-10T18:33:55.807Z,26.20
2022-09-10T18:36:24.425Z,26.10
2022-09-10T18:38:51.833Z,26.10
2022-09-10T18:41:33.748Z,26.20
2022-09-10T18:44:04.036Z,26.20
2022-09-10T18:46:32.428Z,26.20
2022-09-10T18:48:59.652Z,26.10
2022-09-10T18:51:28.753Z,26.20
2022-09-10T18:54:00.848Z,26.10
2022-09-10T18:56:31.052Z,26.20
2022-09-10T18:59:01.183Z,26.10
2022-09-10T19:01:31.209Z,26.00
2022-09-10T19:03:58.867Z,26.00
2022-09-10T19:06:29.270Z,26.00
2022-09-10T19:08:59.392Z,26.00
2022-09-10T19:11:37.955Z,25.90
2022-09-10T19:14:08.420Z,25.90
2022-09-10T19:16:36.197Z,25.80
2022-09-10T19:19:05.901Z,25.80
2022-09-10T19:21:35.399Z,25.70
2022-09-10T19:24:03.732Z,25.70
2022-09-10T19:26:34.170Z,25.60
2022-09-10T19:29:02.277Z,25.60
2022-09-10T19:31:31.887Z,25.60
2022-09-10T19:34:01.597Z,25.50
2022-09-10T19:36:31.687Z,25.50
2022-09-10T19:38:59.643Z,25.40
2022-09-10T19:41:27.116Z,25.40
2022-09-10T19:43:54.878Z,25.30
2022-09-10T19:46:24.940Z,25.30
2022-09-10T19:48:53.243Z,25.20
2022-09-10T19:51:21.517Z,25.20
2022-09-10T19:53:49.539Z,25.10
2022-09-10T19:56:20.707Z,25.00
2022-09-10T19:58:50.670Z,25.00
2022-09-10T20:01:21.173Z,24.90
2022-09-10T20:03:48.374Z,24.80
2022-09-10T20:06:18.440Z,24.80
2022-09-10T20:08:47.209Z,24.80
2022-09-10T20:11:20.783Z,24.70
2022-09-10T20:13:48.151Z,24.70
2022-09-10T20:16:16.750Z,24.60
2022-09-10T20:18:43.732Z,24.60
2022-09-10T20:21:14.864Z,24.60
2022-09-10T20:23:44.161Z,24.50
2022-09-10T20:26:15.933Z,24.40
2022-09-10T20:28:43.874Z,24.40
2022-09-10T20:31:13.065Z,24.30
2022-09-10T20:33:42.395Z,24.30
2022-09-10T20:36:13.059Z,24.30
2022-09-10T20:38:40.180Z,24.20
2022-09-10T20:41:07.991Z,24.20
2022-09-10T20:43:35.062Z,24.20
2022-09-10T20:46:02.394Z,24.20
2022-09-10T20:48:31.068Z,24.20
2022-09-10T20:50:59.868Z,24.10
2022-09-10T20:53:27.395Z,24.10
2022-09-10T20:56:06.466Z,24.10
2022-09-10T20:58:36.632Z,24.10
2022-09-10T21:01:11.977Z,24.10
2022-09-10T21:03:43.758Z,24.00
2022-09-10T21:06:12.452Z,24.00
2022-09-10T21:08:41.228Z,24.00
2022-09-10T21:11:10.931Z,24.00
2022-09-10T21:13:42.513Z,24.00
2022-09-10T21:16:11.417Z,24.00
2022-09-10T21:18:41.220Z,23.90
2022-09-10T21:21:14.030Z,23.90
2022-09-10T21:23:46.380Z,23.90
2022-09-10T21:26:15.671Z,23.80
2022-09-10T21:28:44.804Z,23.80
2022-09-10T21:31:13.100Z,23.80
2022-09-10T21:33:41.708Z,23.80
2022-09-10T21:36:11.896Z,23.80
2022-09-10T21:38:39.208Z,23.80
2022-09-10T21:41:11.143Z,23.70
2022-09-10T21:43:43.113Z,23.70
2022-09-10T21:46:10.657Z,23.70
2022-09-10T21:48:37.735Z,23.70
2022-09-10T21:51:11.665Z,23.70
2022-09-10T21:53:39.628Z,23.70
2022-09-10T21:56:07.126Z,23.70
2022-09-10T21:58:36.381Z,23.60
2022-09-10T22:01:08.497Z,23.60
2022-09-10T22:03:36.128Z,23.60
2022-09-10T22:06:07.061Z,23.60
2022-09-10T22:08:34.415Z,23.50
2022-09-10T22:11:07.480Z,23.50
2022-09-10T22:13:36.666Z,23.50
2022-09-10T22:16:05.835Z,23.50
2022-09-10T22:18:34.215Z,23.40
2022-09-10T22:21:02.168Z,23.40
2022-09-10T22:23:31.293Z,23.40
2022-09-10T22:26:18.902Z,23.30
2022-09-10T22:28:46.440Z,23.30
2022-09-10T22:31:19.225Z,23.30
2022-09-10T22:33:51.773Z,23.30
2022-09-10T22:36:23.763Z,23.30
2022-09-10T22:39:05.813Z,23.30
2022-09-10T22:41:34.807Z,23.20
2022-09-10T22:44:02.733Z,23.20
2022-09-10T22:46:30.236Z,23.20
2022-09-10T22:48:57.420Z,23.20
2022-09-10T22:51:27.101Z,23.10
2022-09-10T22:53:55.393Z,23.10
2022-09-10T22:56:26.096Z,23.10
2022-09-10T22:58:54.159Z,23.10
2022-09-10T23:01:23.798Z,23.10
2022-09-10T23:03:52.151Z,23.00
2022-09-10T23:06:21.821Z,23.00
2022-09-10T23:08:51.121Z,23.00
2022-09-10T23:11:23.740Z,23.00
2022-09-10T23:13:53.248Z,22.90
2022-09-10T23:16:26.724Z,22.90
2022-09-10T23:18:55.443Z,22.90
2022-09-10T23:21:24.565Z,22.90
2022-09-10T23:23:56.870Z,22.80
2022-09-10T23:26:24.171Z,22.80
2022-09-10T23:28:51.357Z,22.80
2022-09-10T23:31:21.307Z,22.80
2022-09-10T23:33:55.251Z,22.80
2022-09-10T23:36:22.778Z,22.80
2022-09-10T23:38:50.157Z,22.80
2022-09-10T23:41:17.401Z,22.70
2022-09-10T23:43:45.521Z,22.70
2022-09-10T23:46:13.171Z,22.60
2022-09-10T23:48:42.713Z,22.70
2022-09-10T23:51:15.665Z,22.60
2022-09-10T23:53:46.339Z,22.60
2022-09-10T23:56:14.846Z,22.60
2022-09-10T23:58:41.926Z,22.50
